Time;durP1;ratioP1;P1;durP2;ratioP2;P2;SDS_P1;SDS_P2;PMS_P1;PMS_P2;Temp;Humidity;BMP_temperature;BMP_pressure;BME280_temperature;BME280_humidity;BME280_pressure;Samples;Min_cycle;Max_cycle;Signal;HPM_P1;HPM_P2
2021/09/17 00:01:31;;;;;;;17.63;9.60;;;16.50;97.60;;;;;;5037345;28;20449;-68
2021/09/17 00:03:58;;;;;;;11.00;9.23;;;16.50;97.60;;;;;;5051754;28;20806;-68
2021/09/17 00:06:27;;;;;;;13.00;10.00;;;16.60;97.70;;;;;;5037483;28;20449;-67
2021/09/17 00:08:55;;;;;;;11.63;8.23;;;16.60;97.80;;;;;;5031940;28;21000;-67
2021/09/17 00:11:22;;;;;;;15.37;9.50;;;16.60;97.80;;;;;;5044162;28;20498;-67
2021/09/17 00:13:50;;;;;;;11.60;10.20;;;16.60;97.80;;;;;;5051626;28;20449;-69
2021/09/17 00:16:18;;;;;;;14.57;9.10;;;16.60;97.80;;;;;;5038664;28;20449;-67
2021/09/17 00:18:45;;;;;;;10.87;8.60;;;16.60;97.80;;;;;;5032987;28;20462;-67
2021/09/17 00:21:18;;;;;;;11.90;9.47;;;16.50;97.60;;;;;;5045357;28;20552;-67
2021/09/17 00:23:47;;;;;;;10.63;9.10;;;16.50;97.40;;;;;;5055349;28;20842;-68
2021/09/17 00:26:14;;;;;;;12.53;9.23;;;16.50;97.50;;;;;;5042982;28;20434;-68
2021/09/17 00:28:41;;;;;;;16.40;9.57;;;16.50;97.70;;;;;;5051937;28;20433;-67
2021/09/17 00:31:09;;;;;;;11.00;9.47;;;16.50;97.90;;;;;;5045055;28;20476;-67
2021/09/17 00:33:36;;;;;;;12.10;9.73;;;16.50;97.80;;;;;;5035011;28;20437;-68
2021/09/17 00:36:04;;;;;;;13.23;9.87;;;16.50;97.70;;;;;;5042872;28;20455;-69
2021/09/17 00:38:32;;;;;;;9.03;7.57;;;16.50;97.80;;;;;;5055070;28;20444;-67
2021/09/17 00:41:01;;;;;;;9.47;8.37;;;16.50;97.70;;;;;;5037723;28;20449;-67
2021/09/17 00:43:29;;;;;;;10.33;8.20;;;16.50;97.90;;;;;;5037101;28;21240;-68
2021/09/17 00:45:56;;;;;;;18.87;9.80;;;16.50;98.10;;;;;;5055103;28;20471;-67
2021/09/17 00:48:24;;;;;;;12.37;8.40;;;16.50;98.20;;;;;;5052858;28;20969;-67
2021/09/17 00:50:51;;;;;;;10.67;7.40;;;16.50;98.60;;;;;;5034704;28;20489;-68
2021/09/17 00:53:19;;;;;;;10.17;8.67;;;16.50;97.90;;;;;;5054319;28;20433;-67
2021/09/17 00:55:46;;;;;;;10.83;8.10;;;16.50;98.00;;;;;;5054556;28;20927;-67
2021/09/17 00:58:15;;;;;;;9.53;7.73;;;16.50;98.20;;;;;;5053911;28;20452;-67
2021/09/17 01:00:48;;;;;;;12.13;7.63;;;16.50;98.30;;;;;;5054538;28;20491;-68
2021/09/17 01:03:15;;;;;;;12.53;9.10;;;16.50;98.20;;;;;;5035990;28;20448;-69
2021/09/17 01:05:42;;;;;;;9.87;8.10;;;16.40;98.20;;;;;;5054273;28;20495;-67
2021/09/17 01:08:19;;;;;;;10.97;7.70;;;16.40;98.00;;;;;;5037064;28;20513;-67
2021/09/17 01:10:46;;;;;;;15.50;8.07;;;16.40;98.10;;;;;;5034474;28;20485;-68
2021/09/17 01:13:17;;;;;;;10.67;7.60;;;16.40;98.00;;;;;;5051073;28;20449;-67
2021/09/17 01:15:44;;;;;;;9.63;7.00;;;16.40;98.40;;;;;;5053271;28;20433;-67
2021/09/17 01:18:11;;;;;;;11.80;8.70;;;16.40;98.50;;;;;;5051496;28;20444;-68
2021/09/17 01:20:39;;;;;;;10.37;7.70;;;16.40;98.50;;;;;;5054162;28;20566;-67
2021/09/17 01:23:08;;;;;;;11.30;7.63;;;16.40;98.60;;;;;;5054140;28;20448;-67
2021/09/17 01:25:35;;;;;;;10.77;8.60;;;16.40;98.60;;;;;;5054199;28;20866;-70
2021/09/17 01:28:05;;;;;;;12.00;9.00;;;16.40;98.50;;;;;;5035230;28;20940;-67
2021/09/17 01:30:33;;;;;;;10.27;8.40;;;16.40;98.00;;;;;;5053356;28;20530;-67
2021/09/17 01:33:01;;;;;;;10.10;7.63;;;16.30;97.60;;;;;;5035739;28;20437;-68
2021/09/17 01:35:28;;;;;;;11.37;8.83;;;16.30;97.50;;;;;;5033953;28;20445;-67
2021/09/17 01:37:57;;;;;;;9.20;7.80;;;16.30;97.40;;;;;;5050114;28;20520;-67
2021/09/17 01:40:28;;;;;;;8.60;7.20;;;16.30;97.20;;;;;;5050254;28;20438;-67
2021/09/17 01:42:55;;;;;;;11.33;8.27;;;16.30;97.20;;;;;;5034018;28;20458;-67
2021/09/17 01:45:24;;;;;;;11.67;8.37;;;16.30;96.90;;;;;;5035723;28;20797;-67
2021/09/17 01:47:51;;;;;;;11.30;9.30;;;16.20;97.00;;;;;;5053690;28;20479;-68
2021/09/17 01:50:19;;;;;;;10.93;7.03;;;16.20;97.20;;;;;;5051974;28;20520;-67
2021/09/17 01:52:46;;;;;;;10.33;8.40;;;16.20;97.10;;;;;;5041734;28;20433;-67
2021/09/17 01:55:17;;;;;;;9.67;7.47;;;16.20;97.00;;;;;;5053164;28;20487;-68
2021/09/17 01:57:48;;;;;;;11.90;8.03;;;16.10;96.80;;;;;;5033678;28;20477;-67
2021/09/17 02:00:16;;;;;;;9.10;7.70;;;16.10;96.90;;;;;;5033531;28;20448;-67
2021/09/17 02:02:43;;;;;;;10.97;7.70;;;16.10;97.30;;;;;;5053006;28;20433;-67
2021/09/17 02:05:11;;;;;;;11.93;8.07;;;16.10;97.30;;;;;;5052147;28;20441;-67
2021/09/17 02:07:39;;;;;;;11.40;8.00;;;16.10;97.20;;;;;;5052897;28;20528;-68
2021/09/17 02:10:09;;;;;;;13.33;8.67;;;16.00;97.00;;;;;;5043349;28;20482;-67
2021/09/17 02:12:36;;;;;;;14.77;9.20;;;16.00;96.90;;;;;;5041991;28;20512;-68
2021/09/17 02:15:06;;;;;;;10.80;8.00;;;16.00;96.90;;;;;;5053249;28;20798;-68
2021/09/17 02:17:37;;;;;;;13.33;7.60;;;16.00;96.70;;;;;;5045242;28;20496;-68
2021/09/17 02:20:08;;;;;;;9.83;7.30;;;16.00;96.80;;;;;;5033706;28;20552;-67
2021/09/17 02:22:36;;;;;;;8.77;6.90;;;16.00;96.80;;;;;;5040682;28;20444;-68
2021/09/17 02:25:04;;;;;;;10.53;7.90;;;15.90;96.70;;;;;;5033419;28;20434;-68
2021/09/17 02:27:32;;;;;;;10.33;7.10;;;15.90;96.70;;;;;;5053001;28;20498;-67
2021/09/17 02:30:00;;;;;;;9.43;7.33;;;15.90;96.70;;;;;;5048528;28;20512;-67
2021/09/17 02:32:29;;;;;;;8.83;7.87;;;15.90;96.80;;;;;;5052873;28;20471;-67
2021/09/17 02:34:58;;;;;;;10.37;7.23;;;15.90;97.00;;;;;;5040255;28;20452;-69
2021/09/17 02:37:34;;;;;;;10.17;7.57;;;15.90;97.00;;;;;;5032854;28;20434;-67
2021/09/17 02:40:01;;;;;;;8.30;6.27;;;15.80;97.00;;;;;;5044939;28;20444;-67
2021/09/17 02:42:29;;;;;;;9.93;6.50;;;15.80;96.70;;;;;;5052651;28;20464;-67
2021/09/17 02:44:56;;;;;;;8.53;6.87;;;15.80;96.60;;;;;;5041495;28;20446;-67
2021/09/17 02:47:24;;;;;;;8.97;7.37;;;15.80;96.50;;;;;;5049004;28;20440;-67
2021/09/17 02:49:53;;;;;;;7.53;5.60;;;15.80;96.50;;;;;;5042338;28;20451;-67
2021/09/17 02:52:24;;;;;;;12.27;7.07;;;15.80;96.70;;;;;;5032713;28;20445;-67
2021/09/17 02:54:52;;;;;;;10.83;7.33;;;15.80;96.60;;;;;;5041464;28;20447;-67
2021/09/17 02:57:20;;;;;;;7.53;6.30;;;15.80;96.70;;;;;;5050368;28;20475;-68
2021/09/17 02:59:47;;;;;;;9.03;7.10;;;15.80;96.80;;;;;;5032485;28;20434;-67
2021/09/17 03:02:17;;;;;;;7.63;5.93;;;15.80;96.50;;;;;;5033837;28;20442;-67
2021/09/17 03:04:50;;;;;;;9.77;6.93;;;15.80;96.50;;;;;;5052331;28;20437;-67
2021/09/17 03:07:18;;;;;;;7.70;6.90;;;15.80;96.50;;;;;;5050276;28;20807;-67
2021/09/17 03:09:46;;;;;;;6.63;5.93;;;15.70;96.50;;;;;;5032383;28;20441;-67
2021/09/17 03:12:13;;;;;;;12.00;5.93;;;15.70;96.60;;;;;;5032740;28;20481;-67
2021/09/17 03:14:40;;;;;;;7.30;5.77;;;15.70;96.60;;;;;;5032705;28;20504;-67
2021/09/17 03:17:08;;;;;;;8.60;6.40;;;15.70;96.50;;;;;;5047212;28;20444;-68
2021/09/17 03:19:36;;;;;;;8.80;6.00;;;15.70;96.50;;;;;;5051928;28;20483;-67
2021/09/17 03:22:04;;;;;;;7.90;6.23;;;15.60;96.50;;;;;;5037632;28;20492;-68
2021/09/17 03:24:33;;;;;;;7.30;6.00;;;15.60;96.40;;;;;;5032491;28;20445;-67
2021/09/17 03:27:01;;;;;;;11.63;7.70;;;15.60;96.40;;;;;;5052450;28;20780;-67
2021/09/17 03:29:28;;;;;;;8.77;6.07;;;15.60;96.40;;;;;;5048021;28;20442;-67
2021/09/17 03:31:57;;;;;;;8.40;6.57;;;15.60;96.40;;;;;;5051909;28;20481;-67
2021/09/17 03:34:27;;;;;;;7.73;5.13;;;15.60;96.40;;;;;;5049051;28;20444;-67
2021/09/17 03:36:59;;;;;;;8.20;6.77;;;15.60;96.30;;;;;;5035618;28;20824;-67
2021/09/17 03:39:27;;;;;;;6.43;5.30;;;15.60;96.20;;;;;;5049130;28;20516;-68
2021/09/17 03:41:56;;;;;;;10.30;5.57;;;15.60;96.20;;;;;;5032104;28;20440;-68
2021/09/17 03:44:25;;;;;;;8.40;6.07;;;15.60;96.20;;;;;;5033088;28;20496;-68
2021/09/17 03:46:53;;;;;;;7.80;5.70;;;15.60;96.20;;;;;;5047996;28;20465;-67
2021/09/17 03:49:21;;;;;;;12.67;6.07;;;15.60;96.20;;;;;;5032040;28;20477;-67
2021/09/17 03:51:51;;;;;;;8.23;6.30;;;15.50;95.90;;;;;;5051635;28;21025;-68
2021/09/17 03:54:21;;;;;;;7.80;5.67;;;15.60;96.40;;;;;;5054090;28;20444;-70
2021/09/17 03:56:51;;;;;;;8.83;7.03;;;15.60;96.20;;;;;;5051789;28;20441;-68
2021/09/17 03:59:20;;;;;;;11.03;6.17;;;15.60;96.50;;;;;;5035715;28;20441;-67
2021/09/17 04:01:48;;;;;;;9.03;6.10;;;15.50;96.50;;;;;;5036016;28;20996;-67
2021/09/17 04:04:16;;;;;;;9.90;6.93;;;15.50;96.50;;;;;;5035859;28;20477;-67
2021/09/17 04:06:43;;;;;;;7.40;5.47;;;15.50;96.50;;;;;;5054205;28;20449;-67
2021/09/17 04:09:11;;;;;;;6.20;5.40;;;15.50;96.60;;;;;;5051396;28;20446;-69
2021/09/17 04:11:43;;;;;;;7.50;5.70;;;15.50;96.40;;;;;;5035790;28;20492;-67
2021/09/17 04:14:15;;;;;;;5.83;4.70;;;15.60;96.50;;;;;;5054568;28;20931;-67
2021/09/17 04:16:45;;;;;;;8.10;5.57;;;15.60;96.50;;;;;;5055391;28;20435;-67
2021/09/17 04:19:12;;;;;;;10.87;6.57;;;15.60;96.40;;;;;;5036249;28;20465;-67
2021/09/17 04:21:42;;;;;;;8.27;6.23;;;15.50;96.30;;;;;;5044824;28;20956;-67
2021/09/17 04:24:11;;;;;;;6.30;5.50;;;15.50;96.00;;;;;;5046725;28;20452;-67
2021/09/17 04:26:38;;;;;;;8.53;6.03;;;15.50;96.10;;;;;;5035615;28;20441;-67
2021/09/17 04:29:06;;;;;;;8.80;6.20;;;15.50;96.20;;;;;;5042362;28;20780;-68
2021/09/17 04:31:33;;;;;;;7.97;5.90;;;15.50;96.20;;;;;;5055324;28;20502;-68
2021/09/17 04:34:02;;;;;;;9.13;5.87;;;15.50;96.30;;;;;;5053549;28;20437;-67
2021/09/17 04:36:30;;;;;;;6.90;5.70;;;15.40;96.20;;;;;;5055501;28;20440;-67
2021/09/17 04:38:57;;;;;;;8.23;5.70;;;15.50;96.20;;;;;;5041541;28;20990;-67
2021/09/17 04:41:25;;;;;;;8.40;6.40;;;15.40;96.10;;;;;;5035332;28;21178;-67
2021/09/17 04:43:52;;;;;;;7.57;6.40;;;15.40;96.10;;;;;;5036328;28;20449;-67
2021/09/17 04:46:19;;;;;;;9.93;5.83;;;15.40;96.20;;;;;;5049273;28;20986;-67
2021/09/17 04:48:47;;;;;;;8.93;8.00;;;15.40;96.30;;;;;;5043525;28;20438;-68
2021/09/17 04:51:21;;;;;;;10.17;7.60;;;15.40;96.50;;;;;;5035176;28;20481;-67
2021/09/17 04:53:49;;;;;;;22.17;10.50;;;15.40;96.40;;;;;;5040664;28;20784;-67
2021/09/17 04:56:16;;;;;;;21.23;11.87;;;15.40;96.40;;;;;;5034967;28;20844;-67
2021/09/17 04:58:43;;;;;;;16.43;8.50;;;15.40;96.40;;;;;;5049636;28;20437;-67
2021/09/17 05:01:16;;;;;;;8.57;6.97;;;15.40;96.50;;;;;;5041464;28;20461;-68
2021/09/17 05:03:45;;;;;;;11.07;7.60;;;15.50;96.30;;;;;;5035897;28;20433;-67
2021/09/17 05:06:14;;;;;;;11.13;7.37;;;15.40;95.80;;;;;;5033519;28;20434;-67
2021/09/17 05:08:44;;;;;;;10.73;6.80;;;15.40;95.80;;;;;;5035734;28;20541;-67
2021/09/17 05:11:11;;;;;;;10.43;7.00;;;15.40;96.00;;;;;;5034772;28;20564;-67
2021/09/17 05:13:39;;;;;;;10.93;8.20;;;15.40;96.00;;;;;;5047714;28;20574;-67
2021/09/17 05:16:11;;;;;;;14.27;8.77;;;15.40;96.00;;;;;;5040040;28;20508;-67
2021/09/17 05:18:39;;;;;;;9.33;7.00;;;15.40;95.90;;;;;;5046418;28;20469;-67
2021/09/17 05:21:06;;;;;;;7.70;6.10;;;15.40;96.00;;;;;;5054300;28;20448;-67
2021/09/17 05:23:36;;;;;;;10.30;7.10;;;15.40;96.00;;;;;;5042817;28;20476;-67
2021/09/17 05:26:10;;;;;;;8.60;6.63;;;15.40;95.50;;;;;;5034542;28;20442;-67
2021/09/17 05:28:37;;;;;;;11.00;6.50;;;15.30;95.40;;;;;;5040538;28;20446;-70
2021/09/17 05:31:05;;;;;;;11.17;6.60;;;15.30;95.50;;;;;;5053992;28;20538;-66
2021/09/17 05:33:37;;;;;;;11.43;6.90;;;15.30;95.70;;;;;;5052845;28;20932;-66
2021/09/17 05:36:07;;;;;;;8.73;6.83;;;15.30;95.80;;;;;;5053927;28;20433;-67
2021/09/17 05:38:35;;;;;;;8.30;6.60;;;15.30;95.60;;;;;;5053163;28;20429;-66
2021/09/17 05:41:02;;;;;;;9.57;6.47;;;15.30;95.70;;;;;;5052473;28;21014;-67
2021/09/17 05:43:30;;;;;;;10.67;6.90;;;15.30;95.70;;;;;;5034383;28;20528;-68
2021/09/17 05:45:57;;;;;;;7.13;6.33;;;15.30;95.70;;;;;;5036095;28;20443;-69
2021/09/17 05:48:24;;;;;;;9.63;6.90;;;15.30;95.70;;;;;;5053715;28;20545;-68
2021/09/17 05:50:53;;;;;;;8.43;6.30;;;15.30;95.50;;;;;;5053570;28;20915;-67
2021/09/17 05:53:20;;;;;;;9.57;6.53;;;15.30;95.50;;;;;;5036140;28;20532;-67
2021/09/17 05:55:47;;;;;;;7.53;6.00;;;15.30;95.60;;;;;;5044860;28;20441;-68
2021/09/17 05:58:14;;;;;;;10.20;8.43;;;15.40;95.00;;;;;;5054045;28;20864;-68
2021/09/17 06:00:43;;;;;;;13.43;8.63;;;15.40;95.40;;;;;;5053455;28;21022;-68
2021/09/17 06:03:14;;;;;;;9.53;7.07;;;15.40;95.80;;;;;;5045990;28;20438;-68
2021/09/17 06:05:41;;;;;;;8.70;6.60;;;15.40;96.10;;;;;;5035167;28;20448;-68
2021/09/17 06:08:08;;;;;;;9.00;6.60;;;15.30;96.30;;;;;;5034985;28;20849;-68
2021/09/17 06:10:44;;;;;;;9.30;6.57;;;15.40;96.10;;;;;;5052058;28;20460;-70
2021/09/17 06:13:13;;;;;;;10.83;8.67;;;15.30;96.30;;;;;;5041897;28;20473;-68
2021/09/17 06:15:43;;;;;;;10.97;7.90;;;15.30;96.40;;;;;;5049412;28;20540;-68
2021/09/17 06:18:10;;;;;;;12.03;7.00;;;15.30;96.30;;;;;;5034883;28;20437;-68
2021/09/17 06:20:37;;;;;;;10.07;7.53;;;15.30;96.10;;;;;;5033661;28;20931;-68
2021/09/17 06:23:04;;;;;;;8.93;6.70;;;15.30;96.20;;;;;;5034929;28;20521;-68
2021/09/17 06:25:31;;;;;;;10.80;7.30;;;15.30;95.50;;;;;;5041983;28;20524;-68
2021/09/17 06:27:58;;;;;;;10.00;6.40;;;15.30;95.60;;;;;;5053650;28;20439;-67
2021/09/17 06:30:25;;;;;;;9.10;6.40;;;15.20;95.60;;;;;;5053039;28;21005;-69
2021/09/17 06:32:54;;;;;;;10.03;7.23;;;15.20;95.20;;;;;;5053012;28;20484;-68
2021/09/17 06:35:20;;;;;;;8.23;6.83;;;15.30;95.40;;;;;;5053536;28;20445;-67
2021/09/17 06:37:49;;;;;;;9.93;6.10;;;15.40;95.60;;;;;;5052909;28;20527;-67
2021/09/17 06:40:17;;;;;;;14.87;11.30;;;15.40;95.40;;;;;;5053357;28;20429;-68
2021/09/17 06:42:44;;;;;;;18.40;10.73;;;15.40;95.60;;;;;;5053426;28;20437;-67
2021/09/17 06:45:11;;;;;;;8.33;6.80;;;15.40;95.90;;;;;;5053612;28;20473;-68
2021/09/17 06:47:46;;;;;;;10.90;8.50;;;15.50;95.30;;;;;;5053000;28;20441;-68
2021/09/17 06:50:15;;;;;;;10.07;7.73;;;15.40;95.50;;;;;;5052946;28;20441;-68
2021/09/17 06:52:50;;;;;;;9.17;7.87;;;15.40;95.80;;;;;;5053196;28;20487;-68
2021/09/17 06:55:18;;;;;;;8.97;6.60;;;15.30;95.70;;;;;;5052951;28;20447;-68
2021/09/17 06:57:47;;;;;;;11.50;7.60;;;15.40;95.80;;;;;;5053060;28;20437;-68
2021/09/17 07:00:18;;;;;;;12.03;7.80;;;15.30;96.10;;;;;;5053159;28;20524;-68
2021/09/17 07:02:45;;;;;;;11.43;7.10;;;15.20;96.30;;;;;;5053177;28;20974;-67
2021/09/17 07:05:14;;;;;;;18.63;7.30;;;15.20;96.70;;;;;;5052954;28;20433;-67
2021/09/17 07:07:46;;;;;;;10.93;8.00;;;15.30;96.50;;;;;;5052946;28;20798;-68
2021/09/17 07:10:21;;;;;;;10.80;6.70;;;15.30;95.80;;;;;;5052567;28;20441;-67
2021/09/17 07:12:52;;;;;;;10.93;7.17;;;15.40;95.60;;;;;;5052738;28;20903;-68
2021/09/17 07:15:22;;;;;;;10.20;8.07;;;15.40;95.40;;;;;;5053082;28;20929;-67
2021/09/17 07:17:54;;;;;;;9.07;6.80;;;15.50;95.50;;;;;;5052397;28;20440;-67
2021/09/17 07:20:23;;;;;;;12.17;10.70;;;15.50;95.40;;;;;;5052512;28;20548;-67
2021/09/17 07:23:03;;;;;;;15.33;11.50;;;15.50;94.90;;;;;;5052590;28;20520;-68
2021/09/17 07:25:33;;;;;;;10.60;7.53;;;15.60;95.20;;;;;;5052580;28;20441;-69
2021/09/17 07:28:02;;;;;;;9.47;7.53;;;15.70;95.20;;;;;;5053386;28;20475;-69
2021/09/17 07:30:32;;;;;;;11.17;7.63;;;15.90;94.90;;;;;;5056751;28;20476;-68
2021/09/17 07:33:02;;;;;;;9.10;6.90;;;16.00;95.10;;;;;;5056940;28;20572;-68
2021/09/17 07:35:30;;;;;;;10.03;7.80;;;16.10;94.70;;;;;;5056839;28;20523;-67
2021/09/17 07:38:00;;;;;;;12.47;7.60;;;16.20;94.60;;;;;;5056576;28;20520;-68
2021/09/17 07:40:28;;;;;;;9.90;7.70;;;16.40;94.80;;;;;;5056657;28;20536;-68
2021/09/17 07:42:59;;;;;;;9.60;7.20;;;16.50;93.60;;;;;;5056474;28;20523;-68
2021/09/17 07:45:31;;;;;;;11.57;7.10;;;16.50;93.50;;;;;;5056835;28;20998;-68
2021/09/17 07:48:00;;;;;;;8.00;6.30;;;16.60;93.10;;;;;;5056574;28;20524;-68
2021/09/17 07:50:28;;;;;;;9.10;7.17;;;16.80;93.20;;;;;;5056519;28;20485;-68
2021/09/17 07:52:56;;;;;;;8.17;5.90;;;16.90;93.70;;;;;;5056537;28;20997;-68
2021/09/17 07:55:23;;;;;;;9.13;6.30;;;17.00;93.10;;;;;;5056228;28;20801;-68
2021/09/17 07:57:50;;;;;;;9.30;7.30;;;17.20;92.50;;;;;;5056753;28;20462;-67
2021/09/17 08:00:18;;;;;;;6.60;5.53;;;17.20;92.00;;;;;;5056308;28;20531;-68
2021/09/17 08:02:45;;;;;;;8.77;7.20;;;17.20;91.10;;;;;;5056022;28;20443;-68
2021/09/17 08:05:13;;;;;;;12.77;6.47;;;17.20;90.90;;;;;;5056306;28;20531;-68
2021/09/17 08:07:39;;;;;;;8.50;6.73;;;17.30;90.20;;;;;;5056347;28;20543;-68
2021/09/17 08:10:09;;;;;;;10.67;6.10;;;17.20;90.10;;;;;;5056190;28;20452;-68
2021/09/17 08:12:36;;;;;;;13.00;7.00;;;17.20;90.00;;;;;;5056282;28;20571;-68
2021/09/17 08:15:03;;;;;;;9.67;6.40;;;17.20;90.60;;;;;;5055827;28;20451;-68
2021/09/17 08:17:30;;;;;;;10.40;7.10;;;17.20;90.70;;;;;;5056156;28;20535;-69
2021/09/17 08:19:57;;;;;;;9.10;6.53;;;17.30;90.90;;;;;;5055616;28;20504;-68
2021/09/17 08:22:23;;;;;;;6.93;4.97;;;17.40;91.10;;;;;;5056179;28;20950;-68
2021/09/17 08:24:50;;;;;;;8.00;6.63;;;17.50;90.50;;;;;;5056109;28;20444;-68
2021/09/17 08:27:19;;;;;;;7.40;5.37;;;17.60;89.60;;;;;;5055796;28;20437;-67
2021/09/17 08:29:45;;;;;;;6.60;5.60;;;17.70;90.10;;;;;;5055973;28;20440;-67
2021/09/17 08:32:12;;;;;;;7.43;6.30;;;17.80;90.40;;;;;;5055750;28;20575;-68
2021/09/17 08:34:41;;;;;;;9.60;6.30;;;17.90;90.40;;;;;;5055583;28;20521;-68
2021/09/17 08:37:09;;;;;;;9.40;5.67;;;18.00;89.90;;;;;;5055644;28;20512;-68
2021/09/17 08:39:38;;;;;;;9.47;5.83;;;17.90;86.20;;;;;;5055402;28;20437;-69
2021/09/17 08:42:07;;;;;;;8.47;6.80;;;17.90;88.00;;;;;;5055668;28;20445;-67
2021/09/17 08:44:36;;;;;;;9.20;5.70;;;17.90;86.60;;;;;;5055387;28;20437;-68
2021/09/17 08:47:05;;;;;;;8.60;6.27;;;18.00;88.40;;;;;;5055701;28;20853;-67
2021/09/17 08:49:33;;;;;;;6.83;5.17;;;18.10;87.60;;;;;;5055473;28;20488;-68
2021/09/17 08:52:00;;;;;;;7.20;5.70;;;18.20;86.90;;;;;;5055689;28;20575;-68
2021/09/17 08:54:27;;;;;;;8.87;5.10;;;18.30;83.40;;;;;;5055642;28;20437;-67
2021/09/17 08:56:55;;;;;;;7.80;5.47;;;18.30;82.80;;;;;;5055201;28;20441;-67
2021/09/17 08:59:22;;;;;;;7.03;5.30;;;18.40;84.10;;;;;;5055340;28;20490;-67
2021/09/17 09:01:50;;;;;;;7.13;5.60;;;18.60;84.40;;;;;;5055098;28;20441;-68
2021/09/17 09:04:29;;;;;;;6.40;5.00;;;18.90;85.80;;;;;;5055073;28;20445;-67
2021/09/17 09:07:04;;;;;;;5.73;4.80;;;19.10;83.40;;;;;;5055341;28;20440;-67
2021/09/17 09:09:31;;;;;;;6.00;4.37;;;19.10;80.00;;;;;;5054884;28;20938;-68
2021/09/17 09:11:58;;;;;;;5.97;4.83;;;19.30;81.20;;;;;;5054948;28;20439;-68
2021/09/17 09:14:25;;;;;;;5.90;4.80;;;19.50;81.80;;;;;;5054950;28;20939;-68
2021/09/17 09:16:56;;;;;;;5.77;4.80;;;19.80;81.80;;;;;;5055052;28;20919;-68
2021/09/17 09:19:27;;;;;;;4.97;3.90;;;20.00;77.60;;;;;;5054771;28;20471;-67
2021/09/17 09:22:09;;;;;;;6.00;3.73;;;20.00;73.30;;;;;;5055008;28;20437;-67
2021/09/17 09:24:39;;;;;;;6.53;4.47;;;20.10;76.10;;;;;;5054877;28;20433;-68
2021/09/17 09:27:09;;;;;;;5.10;4.47;;;20.30;75.60;;;;;;5054838;28;20464;-70
2021/09/17 09:29:37;;;;;;;7.33;4.67;;;20.60;75.40;;;;;;5054543;28;20520;-69
2021/09/17 09:32:06;;;;;;;7.30;5.13;;;20.90;75.70;;;;;;5054456;28;20862;-68
2021/09/17 09:34:54;;;;;;;6.83;4.20;;;21.00;70.80;;;;;;5054682;28;20536;-68
2021/09/17 09:37:23;;;;;;;4.00;3.50;;;21.20;69.20;;;;;;5054295;28;20915;-70
2021/09/17 09:39:56;;;;;;;5.03;3.90;;;21.30;67.50;;;;;;5054541;28;20449;-67
2021/09/17 09:42:32;;;;;;;7.57;5.50;;;21.40;65.70;;;;;;5054682;28;20528;-68
2021/09/17 09:45:17;;;;;;;5.90;4.40;;;21.60;68.40;;;;;;5054669;28;20467;-67
2021/09/17 09:47:48;;;;;;;4.73;4.10;;;21.70;67.40;;;;;;5054389;28;20448;-68
2021/09/17 09:50:21;;;;;;;5.77;4.03;;;21.90;68.30;;;;;;5046979;28;20516;-68
2021/09/17 09:52:55;;;;;;;5.67;4.10;;;21.90;64.30;;;;;;5041703;28;20485;-68
2021/09/17 09:55:25;;;;;;;4.93;3.93;;;21.90;62.40;;;;;;5041509;28;20434;-68
2021/09/17 09:57:55;;;;;;;4.23;2.83;;;22.00;63.30;;;;;;5042882;28;20879;-68
2021/09/17 10:00:23;;;;;;;4.10;3.47;;;22.30;65.80;;;;;;5040926;28;20521;-68
2021/09/17 10:03:01;;;;;;;4.73;3.40;;;22.60;61.50;;;;;;5041380;28;20929;-68
2021/09/17 10:05:31;;;;;;;4.10;3.20;;;22.90;62.90;;;;;;5041565;28;20886;-68
2021/09/17 10:08:01;;;;;;;4.73;3.70;;;23.10;59.40;;;;;;5044095;28;20447;-68
2021/09/17 10:10:28;;;;;;;3.73;3.03;;;23.40;58.70;;;;;;5041439;28;20525;-68
2021/09/17 10:13:03;;;;;;;4.90;2.70;;;23.70;55.50;;;;;;5044158;28;20567;-68
2021/09/17 10:15:35;;;;;;;3.87;2.70;;;24.10;54.70;;;;;;5040961;28;20496;-68
2021/09/17 10:18:11;;;;;;;3.50;2.67;;;24.50;56.70;;;;;;5042795;28;20449;-69
2021/09/17 10:20:39;;;;;;;4.77;2.77;;;25.30;55.00;;;;;;5041626;28;20860;-69
2021/09/17 10:23:25;;;;;;;6.53;3.10;;;25.70;53.40;;;;;;5042477;28;20490;-69
2021/09/17 10:26:02;;;;;;;3.50;2.83;;;25.80;52.30;;;;;;5044440;28;20451;-68
2021/09/17 10:29:05;;;;;;;3.63;2.90;;;25.80;51.80;;;;;;5041482;28;20523;-69
2021/09/17 10:31:42;;;;;;;3.27;2.27;;;25.80;48.90;;;;;;5041479;28;20596;-68
2021/09/17 10:34:34;;;;;;;2.83;2.30;;;25.90;51.60;;;;;;5041771;28;20480;-69
2021/09/17 10:37:02;;;;;;;3.90;3.00;;;26.40;49.50;;;;;;5041130;28;22083;-69
2021/09/17 10:39:29;;;;;;;4.60;2.70;;;27.00;48.20;;;;;;5043162;28;20468;-67
2021/09/17 10:42:14;;;;;;;3.63;2.73;;;27.50;47.10;;;;;;5039903;28;20445;-69
2021/09/17 10:45:16;;;;;;;4.60;2.90;;;27.70;45.00;;;;;;5034257;28;20473;-68
2021/09/17 10:48:01;;;;;;;6.73;2.73;;;27.60;44.70;;;;;;5033252;28;20480;-68
2021/09/17 10:50:52;;;;;;;4.80;2.50;;;27.30;44.20;;;;;;5033314;28;20482;-68
2021/09/17 10:54:02;;;;;;;3.20;2.50;;;26.90;44.30;;;;;;5033132;28;20521;-69
2021/09/17 10:56:45;;;;;;;4.10;2.47;;;26.30;44.80;;;;;;5032924;28;20917;-68
2021/09/17 10:59:21;;;;;;;4.97;2.80;;;25.80;45.50;;;;;;5020081;28;20476;-69
2021/09/17 11:01:53;;;;;;;5.27;2.77;;;25.30;45.70;;;;;;5033043;28;20495;-68
2021/09/17 11:04:31;;;;;;;2.90;2.23;;;25.00;46.20;;;;;;5032844;28;20445;-67
2021/09/17 11:07:37;;;;;;;3.30;2.50;;;24.60;45.20;;;;;;5032619;28;20450;-67
2021/09/17 11:10:24;;;;;;;5.73;2.77;;;24.40;46.40;;;;;;5032935;28;20427;-67
2021/09/17 11:12:51;;;;;;;4.50;2.97;;;24.10;48.40;;;;;;5024142;28;21015;-68
2021/09/17 11:15:20;;;;;;;3.57;2.57;;;23.90;48.90;;;;;;5033884;28;20568;-67
2021/09/17 11:18:08;;;;;;;3.57;2.67;;;23.90;50.80;;;;;;5045566;28;20448;-67
2021/09/17 11:20:35;;;;;;;2.80;2.10;;;24.00;53.00;;;;;;5052626;28;20488;-68
2021/09/17 11:23:05;;;;;;;3.20;2.20;;;24.30;49.30;;;;;;5050823;28;20445;-69
2021/09/17 11:25:36;;;;;;;2.67;1.87;;;24.50;50.00;;;;;;5052934;28;20853;-68
2021/09/17 11:28:06;;;;;;;3.40;2.60;;;24.70;50.10;;;;;;5050953;28;20470;-68
2021/09/17 11:30:35;;;;;;;4.97;2.40;;;24.80;49.80;;;;;;5052935;28;20837;-68
2021/09/17 11:33:17;;;;;;;3.40;2.30;;;24.80;48.30;;;;;;5039403;28;20578;-68
2021/09/17 11:35:44;;;;;;;4.33;2.87;;;24.50;45.90;;;;;;5032522;28;20440;-67
2021/09/17 11:38:24;;;;;;;2.63;2.03;;;24.40;47.90;;;;;;5045643;28;20466;-68
2021/09/17 11:40:57;;;;;;;3.20;2.43;;;24.20;47.10;;;;;;5052703;28;20440;-68
2021/09/17 11:43:29;;;;;;;3.83;2.60;;;24.00;47.20;;;;;;5049608;28;21061;-67
2021/09/17 11:46:09;;;;;;;4.40;2.50;;;23.80;47.80;;;;;;5052129;28;20480;-67
2021/09/17 11:48:48;;;;;;;7.23;2.50;;;23.80;47.20;;;;;;5051308;28;20988;-67
2021/09/17 11:51:16;;;;;;;3.10;2.33;;;23.80;48.80;;;;;;5052429;28;20448;-67
2021/09/17 11:53:48;;;;;;;5.43;2.70;;;23.80;46.90;;;;;;5052640;28;20486;-69
2021/09/17 11:56:16;;;;;;;2.90;2.17;;;24.00;48.10;;;;;;5052625;28;20472;-67
2021/09/17 11:58:48;;;;;;;3.70;2.00;;;24.10;47.00;;;;;;5052638;28;20438;-68
2021/09/17 12:01:26;;;;;;;4.17;2.60;;;24.10;47.10;;;;;;5052221;28;20873;-67
2021/09/17 12:03:55;;;;;;;3.50;2.17;;;24.20;49.10;;;;;;5052549;28;20481;-68
2021/09/17 12:06:28;;;;;;;3.00;1.80;;;24.10;49.40;;;;;;5052245;28;20524;-67
2021/09/17 12:09:06;;;;;;;7.60;2.03;;;23.90;48.00;;;;;;5052548;28;20541;-67
2021/09/17 12:11:33;;;;;;;3.53;1.97;;;23.70;49.80;;;;;;5052427;28;20441;-67
2021/09/17 12:14:09;;;;;;;3.60;1.53;;;23.40;49.60;;;;;;5052964;28;20485;-68
2021/09/17 12:16:54;;;;;;;4.47;1.90;;;23.20;49.30;;;;;;5055852;28;20524;-68
2021/09/17 12:19:28;;;;;;;4.57;1.83;;;22.90;50.40;;;;;;5054652;28;20500;-67
2021/09/17 12:22:03;;;;;;;3.53;2.10;;;22.70;49.70;;;;;;5054823;28;20811;-67
2021/09/17 12:24:46;;;;;;;2.20;1.60;;;22.60;48.90;;;;;;5054671;28;20531;-69
2021/09/17 12:27:13;;;;;;;2.60;2.00;;;22.50;50.20;;;;;;5054523;28;20519;-67
2021/09/17 12:29:56;;;;;;;3.10;2.17;;;22.50;51.10;;;;;;5054795;28;20440;-67
2021/09/17 12:32:23;;;;;;;3.27;2.20;;;22.70;51.60;;;;;;5054430;28;20853;-67
2021/09/17 12:35:12;;;;;;;2.93;1.90;;;23.30;52.70;;;;;;5054365;28;20526;-67
2021/09/17 12:37:43;;;;;;;3.00;2.10;;;24.30;50.70;;;;;;5050363;28;20536;-68
2021/09/17 12:40:14;;;;;;;3.20;2.47;;;25.00;51.60;;;;;;5054389;28;20441;-67
2021/09/17 12:42:57;;;;;;;4.97;2.80;;;25.80;49.00;;;;;;5054468;28;20534;-68
2021/09/17 12:45:26;;;;;;;3.17;2.33;;;26.70;47.60;;;;;;5054259;28;20451;-67
2021/09/17 12:47:55;;;;;;;4.63;2.33;;;28.10;44.80;;;;;;5054415;28;20454;-67
2021/09/17 12:50:29;;;;;;;4.03;2.53;;;28.40;42.70;;;;;;5054044;28;20439;-68
2021/09/17 12:52:56;;;;;;;2.80;2.40;;;28.10;42.70;;;;;;5053986;28;20440;-68
2021/09/17 12:55:28;;;;;;;3.53;2.60;;;27.50;42.20;;;;;;5054147;28;20437;-68
2021/09/17 12:58:16;;;;;;;8.20;2.30;;;26.80;42.30;;;;;;5054251;28;20528;-67
2021/09/17 13:00:51;;;;;;;4.20;2.50;;;26.20;43.30;;;;;;5054048;28;20473;-67